Time;durP1;ratioP1;P1;durP2;ratioP2;P2;SDS_P1;SDS_P2;PMS_P1;PMS_P2;Temp;Humidity;BMP_temperature;BMP_pressure;BME280_temperature;BME280_humidity;BME280_pressure;Samples;Min_cycle;Max_cycle;Signal;HPM_P1;HPM_P2
2022/10/31 00:01:16;;;;;;;29.67;16.37;;;;;;;14.33;76.52;100466.47;4304866;33;34103;-71
2022/10/31 00:03:44;;;;;;;26.83;16.02;;;;;;;14.10;77.49;100459.41;4303141;33;33864;-73
2022/10/31 00:06:11;;;;;;;26.60;15.77;;;;;;;13.73;78.68;100464.66;4303643;33;33459;-77
2022/10/31 00:08:38;;;;;;;28.98;15.98;;;;;;;13.81;78.97;100466.12;4308385;33;34828;-73
2022/10/31 00:11:10;;;;;;;29.87;15.30;;;;;;;13.75;78.95;100470.66;4303565;33;33308;-73
2022/10/31 00:13:37;;;;;;;26.12;14.90;;;;;;;13.77;79.14;100481.34;4303864;33;34870;-76
2022/10/31 00:16:12;;;;;;;26.17;14.55;;;;;;;13.79;78.77;100477.28;4303561;33;34090;-75
2022/10/31 00:18:39;;;;;;;28.45;15.52;;;;;;;13.80;79.11;100475.38;4304053;33;33666;-74
2022/10/31 00:21:07;;;;;;;23.23;13.80;;;;;;;14.08;77.88;100461.56;4304760;33;33172;-76
2022/10/31 00:23:34;;;;;;;26.80;14.00;;;;;;;13.48;80.08;100463.22;4303618;33;34907;-74
2022/10/31 00:26:03;;;;;;;25.92;14.80;;;;;;;13.85;78.93;100461.81;4303370;33;34231;-74
2022/10/31 00:28:31;;;;;;;23.95;14.38;;;;;;;13.63;79.38;100459.03;4302998;33;33951;-73
2022/10/31 00:31:04;;;;;;;25.37;13.95;;;;;;;13.84;79.76;100466.41;4303473;33;33358;-72
2022/10/31 00:33:34;;;;;;;19.67;12.75;;;;;;;13.49;80.08;100462.12;4302535;33;33968;-78
2022/10/31 00:36:01;;;;;;;20.37;12.40;;;;;;;13.88;79.01;100459.38;4291150;33;33132;-73
2022/10/31 00:38:28;;;;;;;20.90;12.82;;;;;;;13.74;79.33;100452.66;4304333;33;34762;-73
2022/10/31 00:40:56;;;;;;;21.67;12.90;;;;;;;13.59;80.05;100447.00;4303237;33;34524;-72
2022/10/31 00:43:23;;;;;;;20.85;13.62;;;;;;;13.57;80.18;100451.91;4304463;33;33938;-73
2022/10/31 00:45:51;;;;;;;20.08;12.32;;;;;;;13.68;79.69;100448.22;4303224;33;34203;-73
2022/10/31 00:48:18;;;;;;;24.42;13.55;;;;;;;13.20;82.12;100445.06;4303493;33;34072;-78
2022/10/31 00:50:48;;;;;;;23.70;13.15;;;;;;;13.50;81.07;100446.63;4307646;33;35284;-71
2022/10/31 00:53:16;;;;;;;20.15;12.90;;;;;;;13.87;79.79;100444.09;4311097;33;33938;-78
2022/10/31 00:55:43;;;;;;;22.17;13.45;;;;;;;14.31;77.64;100437.78;4309494;33;34195;-78
2022/10/31 00:58:12;;;;;;;23.30;13.07;;;;;;;13.68;80.40;100440.03;4309602;33;33642;-78
2022/10/31 01:00:54;;;;;;;21.08;12.50;;;;;;;13.90;79.42;100440.03;4308092;33;33618;-79
2022/10/31 01:03:28;;;;;;;20.05;12.90;;;;;;;13.81;79.32;100441.56;4308342;33;34748;-72
2022/10/31 01:06:04;;;;;;;17.08;12.27;;;;;;;13.71;80.19;100443.09;4311205;33;34226;-78
2022/10/31 01:08:32;;;;;;;18.52;11.45;;;;;;;13.83;79.37;100442.16;4309423;33;33420;-76
2022/10/31 01:11:21;;;;;;;22.02;13.15;;;;;;;13.72;79.67;100444.72;4308054;33;34451;-72
2022/10/31 01:13:51;;;;;;;21.70;12.23;;;;;;;13.14;82.57;100435.97;4308703;33;33797;-73
2022/10/31 06:05:13;;;;;;;28.70;16.60;;;;;;;13.07;82.44;100497.16;4704452;27;20366;-74
2022/10/31 06:07:42;;;;;;;26.10;15.82;;;;;;;13.54;80.21;100503.12;4345507;32;34045;-74
2022/10/31 06:10:11;;;;;;;25.58;15.75;;;;;;;12.99;82.54;100495.66;4335026;32;33771;-74
2022/10/31 06:12:40;;;;;;;28.38;13.85;;;;;;;12.88;83.60;100502.81;4353264;32;33835;-74
2022/10/31 06:15:08;;;;;;;24.15;13.07;;;;;;;13.14;81.84;100497.81;4341244;33;185230;-72
2022/10/31 06:17:36;;;;;;;24.17;13.10;;;;;;;12.46;85.60;100495.00;4333063;33;33902;-78
2022/10/31 06:20:06;;;;;;;24.75;13.70;;;;;;;13.20;81.75;100506.91;4346231;33;34238;-78
2022/10/31 06:22:36;;;;;;;24.52;12.80;;;;;;;13.03;81.87;100509.62;4332293;33;34509;-72
2022/10/31 06:25:05;;;;;;;20.73;12.20;;;;;;;13.32;80.73;100496.75;4357115;32;34719;-81
2022/10/31 06:27:33;;;;;;;24.65;12.23;;;;;;;12.96;82.48;100498.03;4345764;32;32468;-80
2022/10/31 06:30:03;;;;;;;20.85;12.25;;;;;;;12.77;83.79;100509.16;4345134;33;33086;-71
2022/10/31 06:32:30;;;;;;;25.05;12.40;;;;;;;12.55;84.13;100490.00;4358695;32;34218;-81
2022/10/31 06:34:58;;;;;;;23.70;12.65;;;;;;;13.06;81.85;100495.50;4360870;32;35094;-80
2022/10/31 06:37:25;;;;;;;25.73;13.35;;;;;;;13.11;81.81;100501.03;4361257;32;34807;-70
2022/10/31 06:39:57;;;;;;;23.60;12.55;;;;;;;13.12;81.99;100499.97;4342644;32;32380;-75
2022/10/31 06:42:24;;;;;;;28.77;13.05;;;;;;;12.68;84.81;100497.84;4347586;32;34130;-74
2022/10/31 06:44:52;;;;;;;23.23;12.35;;;;;;;13.11;81.25;100496.41;4347648;32;34076;-79
2022/10/31 06:47:22;;;;;;;25.88;12.93;;;;;;;13.01;82.54;100498.16;4359966;32;33211;-78
2022/10/31 06:49:50;;;;;;;21.92;13.00;;;;;;;13.30;80.86;100502.47;4361125;32;33510;-75
2022/10/31 06:52:20;;;;;;;24.30;12.55;;;;;;;13.00;82.21;100515.53;4361352;32;34695;-74
2022/10/31 06:54:47;;;;;;;29.63;13.93;;;;;;;12.65;83.79;100525.53;4354599;32;34705;-74
2022/10/31 06:57:14;;;;;;;23.65;12.90;;;;;;;12.70;84.00;100524.84;4346113;33;34347;-81
2022/10/31 06:59:42;;;;;;;25.08;12.77;;;;;;;12.68;84.51;100524.25;4347689;33;33507;-77
2022/10/31 07:02:10;;;;;;;23.83;12.80;;;;;;;13.35;81.42;100526.25;4322885;33;34656;-78
2022/10/31 07:04:38;;;;;;;22.48;12.10;;;;;;;12.98;82.43;100525.84;4336398;33;35001;-77
2022/10/31 07:07:06;;;;;;;24.80;13.18;;;;;;;13.24;82.33;100529.84;4333247;33;33473;-74
2022/10/31 07:09:34;;;;;;;23.25;12.40;;;;;;;13.44;80.53;100524.75;4336737;33;33193;-80
2022/10/31 07:12:02;;;;;;;21.70;12.50;;;;;;;13.33;81.28;100539.31;4333874;33;34597;-80
2022/10/31 07:14:29;;;;;;;28.02;13.23;;;;;;;13.46;80.34;100533.53;4348129;33;35191;-75
2022/10/31 07:16:57;;;;;;;24.50;13.07;;;;;;;13.22;81.53;100537.47;4333868;33;33817;-79
2022/10/31 07:19:24;;;;;;;25.02;12.48;;;;;;;13.08;82.04;100542.37;4347712;33;33426;-76
2022/10/31 07:21:52;;;;;;;25.35;12.80;;;;;;;13.23;81.14;100542.66;4348042;33;34480;-79
2022/10/31 07:24:19;;;;;;;27.15;13.07;;;;;;;13.14;81.80;100544.12;4347327;33;34046;-78
2022/10/31 07:26:49;;;;;;;29.02;14.55;;;;;;;12.99;82.88;100544.69;4334581;33;32442;-80
2022/10/31 07:29:17;;;;;;;27.13;13.40;;;;;;;12.79;83.85;100555.22;4346855;33;33337;-77
2022/10/31 07:31:46;;;;;;;27.30;14.00;;;;;;;13.15;82.23;100545.78;4347844;33;34129;-79
2022/10/31 07:34:13;;;;;;;24.50;12.98;;;;;;;13.45;80.14;100558.28;4347681;33;35053;-76
2022/10/31 07:36:42;;;;;;;23.30;12.30;;;;;;;13.10;82.15;100560.13;4347864;33;34721;-77
2022/10/31 07:39:12;;;;;;;26.05;13.23;;;;;;;13.26;81.64;100549.50;4333453;33;32830;-77
2022/10/31 07:41:39;;;;;;;26.67;13.35;;;;;;;13.27;82.05;100551.16;4348030;33;34732;-79
2022/10/31 07:44:08;;;;;;;26.58;13.18;;;;;;;13.18;82.64;100548.03;4333328;33;34255;-78
2022/10/31 07:46:45;;;;;;;25.42;12.90;;;;;;;13.65;79.20;100550.44;4346582;33;32383;-77
2022/10/31 07:49:19;;;;;;;27.57;13.37;;;;;;;13.06;82.19;100547.25;4332979;33;32228;-76
2022/10/31 07:51:50;;;;;;;27.37;14.25;;;;;;;13.50;80.70;100542.03;4348017;33;33296;-75
2022/10/31 07:54:19;;;;;;;28.40;15.30;;;;;;;12.47;87.15;100547.53;4347519;33;35028;-81
2022/10/31 07:56:47;;;;;;;29.37;13.80;;;;;;;13.40;81.89;100530.97;4348797;33;33914;-76
2022/10/31 07:59:14;;;;;;;24.73;14.10;;;;;;;13.27;82.16;100537.53;4348059;33;34392;-78
2022/10/31 08:01:42;;;;;;;27.75;12.90;;;;;;;13.43;81.92;100541.34;4347585;33;34047;-76
2022/10/31 08:04:11;;;;;;;27.40;14.05;;;;;;;13.53;81.22;100545.06;4348658;33;34166;-76
2022/10/31 08:06:42;;;;;;;28.25;13.90;;;;;;;13.50;81.85;100550.22;4347788;33;33650;-77
2022/10/31 08:09:10;;;;;;;28.95;14.25;;;;;;;13.59;80.72;100551.44;4349019;33;34381;-77
2022/10/31 08:11:38;;;;;;;25.23;13.68;;;;;;;13.61;80.29;100540.28;4348180;33;34003;-77
2022/10/31 08:14:06;;;;;;;28.55;13.57;;;;;;;13.52;81.18;100548.06;4348977;33;33996;-76
2022/10/31 08:16:34;;;;;;;24.63;13.60;;;;;;;13.85;80.19;100551.81;4348329;33;34569;-78
2022/10/31 08:19:01;;;;;;;26.48;13.88;;;;;;;13.79;80.56;100548.19;4347817;33;33750;-76
2022/10/31 08:21:29;;;;;;;27.13;13.35;;;;;;;13.97;79.32;100546.25;4348938;33;34904;-76
2022/10/31 08:23:57;;;;;;;26.08;13.55;;;;;;;14.15;78.75;100552.25;4348699;33;33984;-77
2022/10/31 08:26:25;;;;;;;26.87;13.25;;;;;;;14.33;77.28;100561.19;4348641;33;33799;-75
2022/10/31 08:28:54;;;;;;;21.40;12.00;;;;;;;14.46;76.15;100562.72;4321383;33;33284;-79
2022/10/31 08:31:22;;;;;;;24.10;13.10;;;;;;;14.00;78.51;100552.03;4339691;32;33766;-75
2022/10/31 08:33:58;;;;;;;25.02;13.27;;;;;;;14.12;78.10;100557.38;4320426;33;33356;-76
2022/10/31 08:36:30;;;;;;;21.55;11.80;;;;;;;14.24;77.83;100554.53;4347444;33;34872;-76
2022/10/31 08:38:59;;;;;;;24.85;13.98;;;;;;;14.04;78.54;100550.47;4346751;33;33641;-76
2022/10/31 08:41:28;;;;;;;29.83;13.32;;;;;;;13.80;79.81;100555.31;4334269;33;34158;-76
2022/10/31 08:43:56;;;;;;;27.50;12.88;;;;;;;14.49;76.63;100549.41;4345248;33;35114;-87
2022/10/31 08:46:24;;;;;;;25.27;13.68;;;;;;;13.88;78.80;100543.94;4346893;33;34624;-74
2022/10/31 08:48:51;;;;;;;25.95;13.70;;;;;;;14.06;77.95;100550.19;4347382;33;33553;-69
2022/10/31 08:51:18;;;;;;;20.50;12.02;;;;;;;14.12;78.17;100551.91;4346596;33;33928;-73
2022/10/31 08:53:47;;;;;;;24.52;12.75;;;;;;;14.14;78.41;100556.03;4346585;33;35177;-71
2022/10/31 08:56:17;;;;;;;26.17;12.25;;;;;;;14.20;77.81;100554.22;4346586;33;33936;-72
2022/10/31 08:58:45;;;;;;;24.08;12.55;;;;;;;14.16;77.57;100553.88;4351115;32;33552;-73
2022/10/31 09:01:13;;;;;;;28.27;12.45;;;;;;;13.87;79.33;100555.94;4340163;33;33892;-75
2022/10/31 09:03:42;;;;;;;22.48;11.38;;;;;;;13.61;80.23;100559.37;4335319;33;34218;-75
2022/10/31 09:06:10;;;;;;;25.23;12.95;;;;;;;13.97;78.49;100560.72;4348317;33;33763;-74
2022/10/31 09:08:38;;;;;;;28.27;12.93;;;;;;;13.08;82.69;100556.00;4333404;33;34308;-76
2022/10/31 09:11:06;;;;;;;26.30;12.88;;;;;;;13.60;80.49;100560.44;4348611;33;34692;-75
2022/10/31 09:13:36;;;;;;;29.98;13.62;;;;;;;14.03;77.46;100553.44;4347806;33;32435;-75
2022/10/31 09:16:09;;;;;;;28.35;13.18;;;;;;;13.69;78.49;100558.94;4334887;33;33966;-73
2022/10/31 09:18:36;;;;;;;24.60;12.32;;;;;;;13.50;79.72;100561.94;4335226;33;33248;-75
2022/10/31 09:21:03;;;;;;;30.00;13.82;;;;;;;13.20;81.91;100564.94;4348066;33;33855;-74
2022/10/31 09:23:31;;;;;;;25.62;13.05;;;;;;;13.52;80.41;100556.25;4346022;33;35180;-75
2022/10/31 09:26:01;;;;;;;27.87;12.55;;;;;;;13.48;81.38;100572.25;4348429;33;34145;-74
2022/10/31 09:28:28;;;;;;;26.45;13.55;;;;;;;13.36;80.80;100567.97;4334733;33;33781;-74
2022/10/31 09:30:58;;;;;;;22.83;12.35;;;;;;;12.83;84.49;100570.84;4347587;33;34708;-72
2022/10/31 09:33:33;;;;;;;23.67;12.70;;;;;;;13.73;80.47;100568.28;4346761;33;34123;-76
2022/10/31 09:36:02;;;;;;;21.90;12.60;;;;;;;14.05;77.95;100562.19;4347886;32;34530;-75
2022/10/31 09:38:30;;;;;;;26.15;12.30;;;;;;;13.98;78.60;100567.84;4347845;32;33462;-72
2022/10/31 09:41:13;;;;;;;25.60;12.52;;;;;;;14.08;78.52;100567.97;4346477;33;33890;-73
2022/10/31 09:43:57;;;;;;;28.80;14.02;;;;;;;13.79;79.91;100574.66;4346275;33;34153;-71
2022/10/31 09:46:35;;;;;;;23.00;12.95;;;;;;;13.72;80.54;100567.47;4346908;33;33655;-71
2022/10/31 09:49:30;;;;;;;28.60;13.73;;;;;;;14.23;78.43;100570.06;4334396;33;34364;-71
2022/10/31 09:52:04;;;;;;;24.30;12.40;;;;;;;13.90;79.82;100573.72;4334278;33;33856;-72
2022/10/31 09:54:40;;;;;;;24.05;12.32;;;;;;;13.56;81.20;100571.00;4322466;33;34176;-73
2022/10/31 09:57:13;;;;;;;24.45;12.80;;;;;;;13.96;78.96;100572.72;4334077;33;33648;-71
2022/10/31 09:59:43;;;;;;;21.55;11.18;;;;;;;13.49;81.78;100570.34;4347224;33;33303;-70
2022/10/31 10:02:17;;;;;;;23.58;12.65;;;;;;;13.96;78.80;100572.72;4346636;33;33829;-80
2022/10/31 10:04:51;;;;;;;;;;;;;;;13.32;82.88;100563.00;4334045;33;33983;-72
2022/10/31 10:07:39;;;;;;;25.17;13.52;;;;;;;14.12;78.68;100560.94;4334545;33;34020;-72
2022/10/31 10:10:49;;;;;;;33.83;20.90;;;;;;;13.71;80.78;100562.25;4347968;33;31702;-74
2022/10/31 10:13:32;;;;;;;32.97;17.48;;;;;;;13.88;80.18;100565.78;4346578;33;33841;-73
2022/10/31 10:16:03;;;;;;;28.50;14.65;;;;;;;13.82;80.68;100566.78;4345903;33;34041;-74
2022/10/31 10:18:38;;;;;;;27.00;13.48;;;;;;;14.16;77.87;100564.78;4347179;33;33966;-73
2022/10/31 10:21:34;;;;;;;23.25;13.50;;;;;;;14.25;77.04;100561.63;4333682;33;34544;-75
2022/10/31 10:24:09;;;;;;;24.80;12.40;;;;;;;14.15;77.15;100559.59;4347556;33;33979;-70
2022/10/31 10:26:40;;;;;;;20.42;11.48;;;;;;;13.29;81.41;100555.31;4335254;32;34200;-71
2022/10/31 10:29:46;;;;;;;24.77;13.00;;;;;;;13.51;80.91;100560.84;4333839;33;33732;-74
2022/10/31 10:32:25;;;;;;;22.60;12.15;;;;;;;13.49;82.08;100554.00;4316025;33;33322;-73
2022/10/31 10:35:23;;;;;;;25.92;14.02;;;;;;;14.26;77.70;100549.66;4315632;33;33364;-79
2022/10/31 10:37:56;;;;;;;23.45;13.07;;;;;;;13.27;82.45;100551.97;4346420;33;34239;-73
2022/10/31 10:40:26;;;;;;;23.42;13.05;;;;;;;13.72;80.23;100551.09;4330919;33;33015;-76
2022/10/31 10:48:50;;;;;;;20.70;12.07;;;;;;;13.78;79.62;100551.16;4343349;33;34334;-75
2022/10/31 10:51:23;;;;;;;24.17;13.13;;;;;;;14.12;78.41;100549.19;4322474;33;32829;-75
2022/10/31 10:54:36;;;;;;;23.62;12.98;;;;;;;13.76;79.83;100545.97;4333393;33;33220;-76
2022/10/31 10:57:17;;;;;;;23.83;13.43;;;;;;;13.87;79.62;100549.69;4330390;33;34105;-78
2022/10/31 10:59:46;;;;;;;21.83;12.18;;;;;;;13.93;79.63;100551.38;4345590;33;34284;-71
2022/10/31 11:02:24;;;;;;;20.60;12.20;;;;;;;13.83;80.06;100553.97;4323568;33;34688;-77
2022/10/31 11:04:55;;;;;;;24.73;13.00;;;;;;;13.58;80.59;100547.03;4319637;33;33442;-71
2022/10/31 11:07:22;;;;;;;24.80;13.25;;;;;;;14.00;78.51;100545.75;4331354;33;34830;-78
2022/10/31 11:09:49;;;;;;;22.45;12.55;;;;;;;13.99;79.15;100539.47;4332983;33;35032;-74
2022/10/31 11:12:21;;;;;;;19.62;11.43;;;;;;;14.11;79.30;100544.81;4338990;33;34195;-75
2022/10/31 11:14:59;;;;;;;21.50;11.73;;;;;;;13.89;79.68;100551.06;4351778;32;34523;-72
2022/10/31 11:17:30;;;;;;;20.62;11.52;;;;;;;13.82;79.35;100546.84;4333980;33;34833;-72
2022/10/31 11:20:01;;;;;;;19.55;11.60;;;;;;;13.53;80.69;100544.25;4334085;33;34083;-72
2022/10/31 11:22:28;;;;;;;20.10;11.65;;;;;;;14.18;78.32;100533.72;4345310;33;33858;-78
2022/10/31 11:24:56;;;;;;;17.45;10.52;;;;;;;14.22;77.03;100532.94;4347579;33;33574;-72
2022/10/31 11:27:25;;;;;;;16.77;10.60;;;;;;;13.70;80.04;100539.59;4333986;33;34893;-81
2022/10/31 11:29:53;;;;;;;20.12;11.88;;;;;;;13.72;80.10;100529.28;4340937;33;34181;-71
2022/10/31 11:32:27;;;;;;;19.27;10.82;;;;;;;14.30;76.10;100532.50;4345797;33;34861;-71
2022/10/31 11:34:58;;;;;;;17.62;10.93;;;;;;;13.99;77.48;100525.81;4347556;33;34385;-77
2022/10/31 11:37:35;;;;;;;18.95;11.63;;;;;;;14.03;78.39;100529.69;4324466;33;34395;-72
2022/10/31 11:40:05;;;;;;;19.40;11.27;;;;;;;13.98;78.49;100526.91;4326386;33;35088;-70
2022/10/31 11:42:39;;;;;;;19.45;11.60;;;;;;;13.95;78.73;100530.12;4319072;33;33822;-77
2022/10/31 11:45:19;;;;;;;21.37;11.90;;;;;;;14.07;78.57;100530.84;4318585;33;33322;-69
2022/10/31 11:47:49;;;;;;;17.15;10.98;;;;;;;13.72;80.00;100525.72;4331485;33;34814;-70
2022/10/31 11:50:34;;;;;;;17.90;11.30;;;;;;;14.19;77.71;100528.00;4344246;33;35010;-70
2022/10/31 11:53:02;;;;;;;18.62;10.88;;;;;;;13.60;80.36;100534.00;4331957;33;33446;-73
2022/10/31 11:55:36;;;;;;;20.75;12.63;;;;;;;13.57;80.46;100530.97;4334091;33;33101;-76
2022/10/31 11:58:04;;;;;;;18.42;10.73;;;;;;;13.24;82.60;100532.56;4334019;33;34103;-71
2022/10/31 12:00:40;;;;;;;18.77;11.15;;;;;;;13.83;79.39;100526.69;4332952;33;34180;-75
2022/10/31 12:03:32;;;;;;;17.00;10.13;;;;;;;13.42;81.07;100526.91;4334087;33;34869;-72
2022/10/31 12:06:07;;;;;;;14.98;10.00;;;;;;;13.61;80.32;100530.22;4333955;33;33826;-72
2022/10/31 12:08:36;;;;;;;17.50;9.88;;;;;;;14.06;77.93;100531.09;4332060;33;33795;-71
2022/10/31 12:11:11;;;;;;;18.15;10.15;;;;;;;14.48;75.70;100519.59;4334545;32;34875;-71
2022/10/31 12:14:09;;;;;;;16.90;10.95;;;;;;;14.72;74.57;100522.91;4352363;32;33692;-71
2022/10/31 12:16:42;;;;;;;18.27;10.70;;;;;;;14.40;76.23;100533.69;4352686;32;33273;-75
2022/10/31 12:19:35;;;;;;;18.50;10.85;;;;;;;14.11;76.88;100525.72;4345441;32;34919;-71
2022/10/31 12:22:14;;;;;;;15.32;10.02;;;;;;;14.15;76.37;100526.88;4361586;32;34929;-72
2022/10/31 12:24:54;;;;;;;14.75;10.10;;;;;;;13.83;78.12;100529.44;4348321;32;33901;-72
2022/10/31 12:27:49;;;;;;;16.33;10.23;;;;;;;13.89;77.19;100529.25;4348258;32;33299;-69
2022/10/31 12:30:22;;;;;;;19.33;11.43;;;;;;;13.64;78.80;100513.34;4350197;32;34667;-71
2022/10/31 12:33:14;;;;;;;18.95;11.77;;;;;;;14.05;76.64;100521.25;4338953;32;34090;-70
2022/10/31 12:36:21;;;;;;;16.35;10.60;;;;;;;13.63;77.65;100519.03;4361823;32;33354;-70
2022/10/31 12:38:58;;;;;;;18.67;11.57;;;;;;;13.48;79.13;100514.19;4337386;32;33613;-76
2022/10/31 12:51:00;;;;;;;19.73;11.88;;;;;;;13.06;81.65;100518.09;4631913;27;20232;-68
2022/10/31 12:54:05;;;;;;;19.17;11.00;;;;;;;12.75;83.80;100514.03;4328806;33;33858;-68
2022/10/31 12:56:45;;;;;;;20.73;11.43;;;;;;;13.22;81.55;100511.03;4337682;33;34915;-69
2022/10/31 12:59:24;;;;;;;16.80;10.98;;;;;;;13.48;80.75;100515.00;4341199;33;35029;-69
2022/10/31 13:01:59;;;;;;;18.15;11.65;;;;;;;12.85;83.64;100511.50;4317623;32;33028;-68
2022/10/31 13:04:35;;;;;;;17.75;10.88;;;;;;;13.40;81.31;100512.69;4337891;32;33753;-73
2022/10/31 13:07:08;;;;;;;17.33;10.65;;;;;;;13.45;79.99;100509.22;4338590;32;35223;-69
2022/10/31 13:09:45;;;;;;;18.25;10.55;;;;;;;13.70;79.66;100509.59;4350755;32;33969;-71
2022/10/31 13:12:16;;;;;;;16.50;10.38;;;;;;;13.34;80.73;100509.06;4339943;32;33445;-74
2022/10/31 13:14:47;;;;;;;19.00;11.48;;;;;;;13.46;80.75;100506.25;4337186;32;34034;-70
2022/10/31 13:17:34;;;;;;;19.20;12.37;;;;;;;12.92;84.12;100508.63;4339590;32;34121;-70
2022/10/31 13:20:30;;;;;;;20.42;12.02;;;;;;;12.96;83.83;100500.75;4328172;32;32473;-75
2022/10/31 13:23:10;;;;;;;;;;;;;;;12.97;83.77;100507.87;4328632;32;32730;-69
2022/10/31 13:26:01;;;;;;;18.85;11.65;;;;;;;13.43;80.86;100514.09;4351201;32;34354;-69
2022/10/31 13:28:35;;;;;;;22.27;12.52;;;;;;;13.81;79.19;100507.84;4325125;32;34004;-79
2022/10/31 13:31:03;;;;;;;22.95;12.55;;;;;;;13.42;81.03;100507.00;4328267;32;33911;-69
2022/10/31 13:33:34;;;;;;;20.08;12.00;;;;;;;13.41;81.92;100500.75;4352910;32;33416;-69
2022/10/31 13:36:14;;;;;;;23.12;12.55;;;;;;;13.50;80.25;100501.16;4340593;32;33747;-72
2022/10/31 13:38:54;;;;;;;20.52;11.63;;;;;;;13.58;80.31;100508.88;4353997;32;33728;-70
2022/10/31 13:41:34;;;;;;;19.90;11.68;;;;;;;13.32;81.77;100504.94;4340695;32;33461;-69
2022/10/31 13:44:14;;;;;;;23.30;12.05;;;;;;;13.71;80.17;100497.63;4336785;32;34049;-69
2022/10/31 13:46:43;;;;;;;19.25;11.93;;;;;;;13.55;80.90;100503.94;4332920;33;33818;-69
2022/10/31 13:49:40;;;;;;;23.48;12.02;;;;;;;13.77;78.96;100497.69;4326323;33;34286;-69
2022/10/31 13:52:10;;;;;;;20.85;11.95;;;;;;;13.62;80.39;100493.66;4300168;33;34797;-83
2022/10/31 13:54:42;;;;;;;23.48;13.38;;;;;;;13.16;82.60;100492.13;4329933;33;33403;-70
2022/10/31 13:57:37;;;;;;;18.92;11.32;;;;;;;13.03;83.69;100501.44;4332078;33;34742;-70
2022/10/31 14:00:19;;;;;;;21.42;12.85;;;;;;;13.67;79.96;100492.91;4312759;33;34019;-70
2022/10/31 14:02:54;;;;;;;21.95;12.65;;;;;;;13.67;80.24;100492.91;4316409;33;33492;-70
2022/10/31 14:05:30;;;;;;;19.65;11.95;;;;;;;13.38;80.44;100501.22;4303640;33;33861;-70
2022/10/31 14:08:01;;;;;;;20.65;12.68;;;;;;;13.43;80.87;100497.75;4303642;33;33991;-70
2022/10/31 14:10:32;;;;;;;22.58;12.15;;;;;;;13.30;81.52;100502.47;4307641;33;34168;-78
2022/10/31 14:13:22;;;;;;;21.33;12.05;;;;;;;13.42;80.87;100493.38;4300096;33;33439;-70
2022/10/31 14:15:56;;;;;;;19.17;11.32;;;;;;;13.40;81.54;100495.53;4324040;33;33627;-70
2022/10/31 14:18:28;;;;;;;;;;;;;;;13.45;80.22;100501.87;4294901;33;34588;-77
2022/10/31 14:20:55;;;;;;;21.45;11.68;;;;;;;13.88;78.27;100491.31;4320980;33;34613;-81
2022/10/31 14:23:40;;;;;;;21.83;12.32;;;;;;;13.74;78.99;100491.66;4324492;33;34474;-83
2022/10/31 14:26:24;;;;;;;;;;;;;;;13.56;80.32;100497.41;4298988;33;32730;-71
2022/10/31 14:28:53;;;;;;;17.33;10.70;;;;;;;13.41;81.31;100489.84;4321478;33;33723;-71
2022/10/31 14:31:31;;;;;;;22.92;13.35;;;;;;;13.33;81.98;100495.72;4310246;33;34000;-68
2022/10/31 14:34:00;;;;;;;21.90;13.35;;;;;;;13.72;78.96;100493.00;4310420;33;34740;-69
2022/10/31 14:36:55;;;;;;;22.17;14.35;;;;;;;13.57;79.91;100487.34;4310051;33;33468;-70
2022/10/31 14:39:41;;;;;;;22.02;13.85;;;;;;;13.05;82.93;100493.84;4322678;33;33807;-70
2022/10/31 14:42:44;;;;;;;27.00;15.23;;;;;;;13.42;81.47;100490.66;4320062;33;33238;-78
2022/10/31 14:45:43;;;;;;;23.42;13.70;;;;;;;13.38;81.26;100495.78;4283925;33;33489;-73
2022/10/31 14:48:35;;;;;;;26.05;13.68;;;;;;;13.24;82.70;100499.88;4304372;33;33604;-71
2022/10/31 14:51:25;;;;;;;24.05;14.23;;;;;;;13.56;80.98;100496.56;4327103;33;33689;-70
2022/10/31 14:53:55;;;;;;;26.80;14.45;;;;;;;13.57;80.78;100498.25;4307120;33;34123;-69
2022/10/31 14:56:30;;;;;;;22.55;12.30;;;;;;;13.59;80.42;100507.81;4319054;33;34034;-71
2022/10/31 14:59:02;;;;;;;21.00;12.98;;;;;;;13.45;80.91;100493.69;4317887;33;33087;-71
2022/10/31 15:01:36;;;;;;;23.52;14.18;;;;;;;13.05;83.34;100485.69;4319358;33;33955;-81
2022/10/31 15:04:13;;;;;;;24.12;13.57;;;;;;;13.80;78.75;100489.84;4317049;33;33902;-84
2022/10/31 15:07:27;;;;;;;22.60;13.20;;;;;;;13.13;81.43;100488.81;4310433;33;33746;-70
2022/10/31 15:10:04;;;;;;;23.27;12.90;;;;;;;13.01;82.71;100489.97;4320552;33;33417;-71
2022/10/31 15:12:34;;;;;;;24.23;13.25;;;;;;;13.41;80.86;100491.72;4321827;33;33806;-69
2022/10/31 15:15:21;;;;;;;22.30;13.52;;;;;;;12.89;83.67;100487.31;4311243;33;33998;-73
2022/10/31 15:17:55;;;;;;;22.70;13.55;;;;;;;12.69;84.75;100495.94;4318857;33;34656;-74
2022/10/31 15:20:26;;;;;;;24.45;14.20;;;;;;;12.59;85.37;100493.03;4320072;33;34524;-78
2022/10/31 15:22:56;;;;;;;21.42;13.43;;;;;;;12.59;85.36;100484.87;4328167;33;34064;-73
2022/10/31 15:25:26;;;;;;;24.05;14.38;;;;;;;12.74;84.89;100485.13;4348988;33;34197;-75
2022/10/31 15:27:53;;;;;;;26.08;14.82;;;;;;;12.82;84.73;100481.19;4329161;33;33804;-74
2022/10/31 15:30:22;;;;;;;25.40;14.52;;;;;;;13.18;82.71;100487.25;4331619;33;34323;-70
2022/10/31 15:32:51;;;;;;;27.87;14.87;;;;;;;12.86;84.63;100485.09;4323543;33;33759;-76
2022/10/31 15:35:27;;;;;;;28.02;15.40;;;;;;;13.05;83.26;100486.50;4332484;33;35294;-76
2022/10/31 15:37:56;;;;;;;26.02;13.80;;;;;;;12.36;87.88;100492.06;4333989;33;35006;-78
2022/10/31 15:40:25;;;;;;;26.75;15.73;;;;;;;13.01;83.19;100479.91;4320033;33;33836;-76
2022/10/31 15:42:58;;;;;;;28.25;15.60;;;;;;;13.19;81.76;100486.16;4321068;33;33802;-78
2022/10/31 15:45:27;;;;;;;28.27;15.32;;;;;;;13.22;81.80;100491.97;4334283;33;34029;-76
2022/10/31 15:48:13;;;;;;;30.30;15.20;;;;;;;13.33;81.55;100492.97;4320068;33;33924;-76
2022/10/31 15:50:50;;;;;;;23.40;14.13;;;;;;;13.21;81.89;100501.19;4334124;33;34488;-76
2022/10/31 15:53:21;;;;;;;25.98;14.38;;;;;;;12.80;84.40;100499.69;4320794;33;33862;-82
2022/10/31 15:55:52;;;;;;;27.13;15.07;;;;;;;12.64;85.13;100498.59;4319880;33;35182;-79
2022/10/31 15:58:19;;;;;;;28.00;15.65;;;;;;;13.02;83.60;100503.31;4319352;33;34161;-78
2022/10/31 16:00:58;;;;;;;27.73;15.63;;;;;;;12.83;84.69;100508.19;4311633;33;33378;-72
2022/10/31 16:03:31;;;;;;;26.30;14.40;;;;;;;12.77;85.33;100505.63;4321075;33;34861;-77
2022/10/31 16:06:01;;;;;;;23.08;13.60;;;;;;;12.72;84.94;100507.19;4318237;33;34051;-82
2022/10/31 16:08:29;;;;;;;27.10;14.65;;;;;;;12.15;87.96;100507.16;4320728;33;33701;-72
2022/10/31 16:11:02;;;;;;;25.73;13.68;;;;;;;12.32;87.57;100505.31;4333737;33;33021;-72
2022/10/31 16:13:33;;;;;;;25.45;14.63;;;;;;;12.37;87.20;100509.22;4322424;33;34685;-73
2022/10/31 16:16:12;;;;;;;25.12;14.18;;;;;;;12.56;87.34;100512.59;4305955;33;33915;-73
2022/10/31 16:19:01;;;;;;;27.05;14.43;;;;;;;12.51;86.63;100507.87;4316337;33;34561;-74
2022/10/31 16:21:31;;;;;;;23.42;13.52;;;;;;;12.60;85.81;100519.19;4319549;33;33397;-84
2022/10/31 16:24:17;;;;;;;24.65;14.07;;;;;;;12.46;86.92;100516.78;4317888;33;33850;-75
2022/10/31 16:26:53;;;;;;;25.45;15.00;;;;;;;12.57;87.14;100520.50;4319798;33;34000;-73
2022/10/31 16:29:28;;;;;;;23.40;13.88;;;;;;;13.08;84.06;100518.69;4333316;33;35272;-77
2022/10/31 16:31:56;;;;;;;26.92;14.55;;;;;;;12.88;84.92;100523.78;4331817;33;33542;-74
2022/10/31 16:34:24;;;;;;;24.33;14.15;;;;;;;12.73;85.47;100533.31;4323134;33;34096;-74
2022/10/31 16:36:53;;;;;;;24.95;13.88;;;;;;;12.56;86.15;100526.19;4320155;33;34874;-73
2022/10/31 16:39:21;;;;;;;25.12;13.95;;;;;;;12.81;85.07;100525.84;4335897;33;33973;-74
2022/10/31 16:41:50;;;;;;;27.00;14.05;;;;;;;12.50;86.89;100530.69;4322188;33;34480;-74
2022/10/31 16:44:23;;;;;;;26.05;14.77;;;;;;;12.67;85.32;100526.13;4292800;33;33681;-73